sensor_id;sensor_type;location;lat;lon;timestamp;P1;durP1;ratioP1;P2;durP2;ratioP2
53287;SDS011;39172;45.550;12.072;2023-12-07T00:01:19;24.38;;;14.13;;
53287;SDS011;39172;45.550;12.072;2023-12-07T00:07:20;23.48;;;14.80;;
53287;SDS011;39172;45.550;12.072;2023-12-07T00:13:21;27.92;;;18.15;;
53287;SDS011;39172;45.550;12.072;2023-12-07T00:19:22;28.70;;;18.60;;
53287;SDS011;39172;45.550;12.072;2023-12-07T00:25:23;33.15;;;20.58;;
53287;SDS011;39172;45.550;12.072;2023-12-07T00:31:24;30.40;;;18.48;;
53287;SDS011;39172;45.550;12.072;2023-12-07T00:37:25;25.98;;;15.95;;
53287;SDS011;39172;45.550;12.072;2023-12-07T00:43:25;26.30;;;16.23;;
53287;SDS011;39172;45.550;12.072;2023-12-07T00:49:26;25.50;;;16.52;;
53287;SDS011;39172;45.550;12.072;2023-12-07T00:55:27;23.45;;;15.30;;
53287;SDS011;39172;45.550;12.072;2023-12-07T01:01:28;20.42;;;13.15;;
53287;SDS011;39172;45.550;12.072;2023-12-07T01:07:29;24.67;;;16.85;;
53287;SDS011;39172;45.550;12.072;2023-12-07T01:13:30;21.13;;;14.82;;
53287;SDS011;39172;45.550;12.072;2023-12-07T01:19:31;22.85;;;14.93;;
53287;SDS011;39172;45.550;12.072;2023-12-07T01:25:32;21.23;;;14.27;;
53287;SDS011;39172;45.550;12.072;2023-12-07T01:31:33;21.67;;;14.52;;
53287;SDS011;39172;45.550;12.072;2023-12-07T01:37:33;22.08;;;15.25;;
53287;SDS011;39172;45.550;12.072;2023-12-07T01:43:34;19.83;;;14.23;;
53287;SDS011;39172;45.550;12.072;2023-12-07T01:49:35;26.67;;;18.45;;
53287;SDS011;39172;45.550;12.072;2023-12-07T01:55:36;29.73;;;19.40;;
53287;SDS011;39172;45.550;12.072;2023-12-07T02:01:37;28.65;;;19.55;;
53287;SDS011;39172;45.550;12.072;2023-12-07T02:07:39;28.25;;;19.50;;
53287;SDS011;39172;45.550;12.072;2023-12-07T02:13:41;28.52;;;19.48;;
53287;SDS011;39172;45.550;12.072;2023-12-07T02:26:02;23.73;;;16.27;;
53287;SDS011;39172;45.550;12.072;2023-12-07T02:32:03;20.77;;;14.00;;
53287;SDS011;39172;45.550;12.072;2023-12-07T02:38:05;24.10;;;16.02;;
53287;SDS011;39172;45.550;12.072;2023-12-07T02:44:06;27.75;;;18.30;;
53287;SDS011;39172;45.550;12.072;2023-12-07T02:50:08;29.38;;;19.60;;
53287;SDS011;39172;45.550;12.072;2023-12-07T02:56:09;32.28;;;20.83;;
53287;SDS011;39172;45.550;12.072;2023-12-07T03:02:10;31.10;;;20.33;;
53287;SDS011;39172;45.550;12.072;2023-12-07T03:08:11;31.73;;;18.45;;
53287;SDS011;39172;45.550;12.072;2023-12-07T03:14:12;27.63;;;18.63;;
53287;SDS011;39172;45.550;12.072;2023-12-07T03:20:13;29.73;;;19.45;;
53287;SDS011;39172;45.550;12.072;2023-12-07T03:26:17;30.90;;;19.27;;
53287;SDS011;39172;45.550;12.072;2023-12-07T03:32:18;28.10;;;18.25;;
53287;SDS011;39172;45.550;12.072;2023-12-07T03:38:19;29.13;;;19.10;;
53287;SDS011;39172;45.550;12.072;2023-12-07T03:44:19;32.70;;;21.40;;
53287;SDS011;39172;45.550;12.072;2023-12-07T03:50:20;32.22;;;20.85;;
53287;SDS011;39172;45.550;12.072;2023-12-07T03:56:25;31.00;;;19.08;;
53287;SDS011;39172;45.550;12.072;2023-12-07T04:02:26;26.83;;;18.08;;
53287;SDS011;39172;45.550;12.072;2023-12-07T04:08:27;27.77;;;18.48;;
53287;SDS011;39172;45.550;12.072;2023-12-07T04:14:28;29.10;;;18.80;;
53287;SDS011;39172;45.550;12.072;2023-12-07T04:20:29;33.28;;;20.67;;
53287;SDS011;39172;45.550;12.072;2023-12-07T04:26:30;29.50;;;18.85;;
53287;SDS011;39172;45.550;12.072;2023-12-07T04:32:31;24.25;;;16.55;;
53287;SDS011;39172;45.550;12.072;2023-12-07T04:38:32;27.58;;;17.52;;
53287;SDS011;39172;45.550;12.072;2023-12-07T04:44:33;23.88;;;15.82;;
53287;SDS011;39172;45.550;12.072;2023-12-07T04:50:34;23.75;;;15.60;;
53287;SDS011;39172;45.550;12.072;2023-12-07T04:56:34;18.88;;;12.77;;
53287;SDS011;39172;45.550;12.072;2023-12-07T05:02:35;17.75;;;11.68;;
53287;SDS011;39172;45.550;12.072;2023-12-07T05:08:37;16.83;;;11.93;;
53287;SDS011;39172;45.550;12.072;2023-12-07T05:14:37;22.77;;;13.65;;
53287;SDS011;39172;45.550;12.072;2023-12-07T05:20:38;20.75;;;13.38;;
53287;SDS011;39172;45.550;12.072;2023-12-07T05:26:43;21.35;;;13.45;;
53287;SDS011;39172;45.550;12.072;2023-12-07T05:32:44;19.35;;;12.60;;
53287;SDS011;39172;45.550;12.072;2023-12-07T05:38:44;14.40;;;10.18;;
53287;SDS011;39172;45.550;12.072;2023-12-07T05:44:45;15.85;;;10.32;;
53287;SDS011;39172;45.550;12.072;2023-12-07T05:50:46;16.65;;;11.23;;
53287;SDS011;39172;45.550;12.072;2023-12-07T05:56:47;16.13;;;10.43;;
53287;SDS011;39172;45.550;12.072;2023-12-07T06:02:48;21.52;;;12.98;;
53287;SDS011;39172;45.550;12.072;2023-12-07T06:08:50;16.40;;;11.07;;
53287;SDS011;39172;45.550;12.072;2023-12-07T06:14:50;16.10;;;9.82;;
53287;SDS011;39172;45.550;12.072;2023-12-07T06:20:51;16.23;;;10.18;;
53287;SDS011;39172;45.550;12.072;2023-12-07T06:26:52;12.80;;;8.77;;
53287;SDS011;39172;45.550;12.072;2023-12-07T06:32:53;14.35;;;8.85;;
53287;SDS011;39172;45.550;12.072;2023-12-07T06:38:54;12.73;;;9.15;;
53287;SDS011;39172;45.550;12.072;2023-12-07T06:44:55;12.38;;;7.90;;
53287;SDS011;39172;45.550;12.072;2023-12-07T06:50:56;12.40;;;8.07;;
53287;SDS011;39172;45.550;12.072;2023-12-07T06:56:57;12.32;;;8.05;;
53287;SDS011;39172;45.550;12.072;2023-12-07T07:02:58;10.40;;;6.85;;
53287;SDS011;39172;45.550;12.072;2023-12-07T07:08:59;9.88;;;6.05;;
53287;SDS011;39172;45.550;12.072;2023-12-07T07:15:00;9.68;;;6.20;;
53287;SDS011;39172;45.550;12.072;2023-12-07T07:21:02;9.35;;;6.10;;
53287;SDS011;39172;45.550;12.072;2023-12-07T07:27:04;9.18;;;5.65;;
53287;SDS011;39172;45.550;12.072;2023-12-07T07:33:05;10.10;;;6.78;;
53287;SDS011;39172;45.550;12.072;2023-12-07T07:39:07;9.52;;;5.75;;
53287;SDS011;39172;45.550;12.072;2023-12-07T07:45:09;12.07;;;8.15;;
53287;SDS011;39172;45.550;12.072;2023-12-07T07:51:10;13.35;;;8.25;;
53287;SDS011;39172;45.550;12.072;2023-12-07T07:57:11;10.90;;;6.82;;
53287;SDS011;39172;45.550;12.072;2023-12-07T08:03:12;9.18;;;5.70;;
53287;SDS011;39172;45.550;12.072;2023-12-07T08:09:13;12.13;;;7.93;;
53287;SDS011;39172;45.550;12.072;2023-12-07T08:15:14;13.38;;;8.40;;
53287;SDS011;39172;45.550;12.072;2023-12-07T08:21:20;8.70;;;5.82;;
53287;SDS011;39172;45.550;12.072;2023-12-07T08:27:21;25.02;;;14.57;;
53287;SDS011;39172;45.550;12.072;2023-12-07T08:33:22;24.52;;;15.25;;
53287;SDS011;39172;45.550;12.072;2023-12-07T08:39:23;23.58;;;13.95;;
53287;SDS011;39172;45.550;12.072;2023-12-07T08:45:26;21.38;;;13.38;;
53287;SDS011;39172;45.550;12.072;2023-12-07T08:51:28;18.90;;;12.50;;
53287;SDS011;39172;45.550;12.072;2023-12-07T08:57:29;21.52;;;13.63;;
53287;SDS011;39172;45.550;12.072;2023-12-07T09:03:30;18.67;;;11.75;;
53287;SDS011;39172;45.550;12.072;2023-12-07T09:09:32;18.33;;;11.30;;
53287;SDS011;39172;45.550;12.072;2023-12-07T09:15:33;23.42;;;13.50;;
53287;SDS011;39172;45.550;12.072;2023-12-07T09:21:38;26.00;;;15.43;;
53287;SDS011;39172;45.550;12.072;2023-12-07T09:27:39;27.55;;;18.52;;
53287;SDS011;39172;45.550;12.072;2023-12-07T09:33:40;28.75;;;18.25;;
53287;SDS011;39172;45.550;12.072;2023-12-07T09:39:41;28.67;;;18.88;;
53287;SDS011;39172;45.550;12.072;2023-12-07T09:45:42;30.48;;;18.02;;
53287;SDS011;39172;45.550;12.072;2023-12-07T09:51:45;26.77;;;15.82;;
53287;SDS011;39172;45.550;12.072;2023-12-07T09:57:47;17.30;;;10.98;;
53287;SDS011;39172;45.550;12.072;2023-12-07T10:03:48;24.15;;;13.45;;
53287;SDS011;39172;45.550;12.072;2023-12-07T10:09:49;19.08;;;11.68;;
53287;SDS011;39172;45.550;12.072;2023-12-07T10:15:50;21.73;;;13.05;;
53287;SDS011;39172;45.550;12.072;2023-12-07T10:22:12;20.63;;;12.25;;
53287;SDS011;39172;45.550;12.072;2023-12-07T10:28:13;12.98;;;7.53;;
53287;SDS011;39172;45.550;12.072;2023-12-07T10:34:17;8.95;;;5.68;;
53287;SDS011;39172;45.550;12.072;2023-12-07T10:40:20;7.63;;;4.82;;
53287;SDS011;39172;45.550;12.072;2023-12-07T10:46:22;9.32;;;5.10;;
53287;SDS011;39172;45.550;12.072;2023-12-07T10:52:24;8.25;;;5.10;;
53287;SDS011;39172;45.550;12.072;2023-12-07T10:58:27;7.47;;;4.68;;
53287;SDS011;39172;45.550;12.072;2023-12-07T11:04:28;15.18;;;9.38;;
53287;SDS011;39172;45.550;12.072;2023-12-07T11:10:34;17.15;;;9.73;;
53287;SDS011;39172;45.550;12.072;2023-12-07T11:16:38;11.90;;;7.30;;
53287;SDS011;39172;45.550;12.072;2023-12-07T11:22:43;7.43;;;4.80;;
53287;SDS011;39172;45.550;12.072;2023-12-07T11:28:45;7.38;;;4.90;;
53287;SDS011;39172;45.550;12.072;2023-12-07T11:34:47;7.05;;;4.45;;
53287;SDS011;39172;45.550;12.072;2023-12-07T11:40:48;6.60;;;3.95;;
53287;SDS011;39172;45.550;12.072;2023-12-07T11:46:49;6.43;;;3.47;;
53287;SDS011;39172;45.550;12.072;2023-12-07T11:52:50;8.93;;;5.10;;
53287;SDS011;39172;45.550;12.072;2023-12-07T11:58:52;7.25;;;4.28;;
53287;SDS011;39172;45.550;12.072;2023-12-07T12:04:54;8.13;;;4.82;;
53287;SDS011;39172;45.550;12.072;2023-12-07T12:10:57;6.65;;;4.28;;
53287;SDS011;39172;45.550;12.072;2023-12-07T12:17:00;7.85;;;4.25;;
53287;SDS011;39172;45.550;12.072;2023-12-07T12:23:02;16.50;;;10.90;;
53287;SDS011;39172;45.550;12.072;2023-12-07T12:29:04;17.98;;;10.50;;
53287;SDS011;39172;45.550;12.072;2023-12-07T12:35:07;40.85;;;20.83;;
53287;SDS011;39172;45.550;12.072;2023-12-07T12:41:10;38.90;;;21.05;;
53287;SDS011;39172;45.550;12.072;2023-12-07T12:47:12;29.52;;;16.73;;
53287;SDS011;39172;45.550;12.072;2023-12-07T12:53:13;18.23;;;10.80;;
53287;SDS011;39172;45.550;12.072;2023-12-07T12:59:15;14.48;;;8.95;;
53287;SDS011;39172;45.550;12.072;2023-12-07T13:05:17;14.60;;;9.38;;
53287;SDS011;39172;45.550;12.072;2023-12-07T13:11:18;24.58;;;14.98;;
53287;SDS011;39172;45.550;12.072;2023-12-07T13:17:20;14.25;;;8.13;;
53287;SDS011;39172;45.550;12.072;2023-12-07T13:23:21;13.23;;;11.23;;
53287;SDS011;39172;45.550;12.072;2023-12-07T13:29:23;16.60;;;9.45;;
53287;SDS011;39172;45.550;12.072;2023-12-07T13:35:25;13.82;;;8.43;;
53287;SDS011;39172;45.550;12.072;2023-12-07T13:41:26;16.55;;;10.35;;
53287;SDS011;39172;45.550;12.072;2023-12-07T13:47:28;25.05;;;14.27;;
53287;SDS011;39172;45.550;12.072;2023-12-07T13:53:32;36.75;;;19.80;;
53287;SDS011;39172;45.550;12.072;2023-12-07T13:59:35;19.80;;;11.63;;
53287;SDS011;39172;45.550;12.072;2023-12-07T14:05:38;30.02;;;17.30;;
53287;SDS011;39172;45.550;12.072;2023-12-07T14:11:40;29.92;;;16.83;;
53287;SDS011;39172;45.550;12.072;2023-12-07T14:17:42;34.58;;;17.23;;
53287;SDS011;39172;45.550;12.072;2023-12-07T14:23:43;39.83;;;19.95;;
53287;SDS011;39172;45.550;12.072;2023-12-07T14:29:44;47.00;;;21.83;;
53287;SDS011;39172;45.550;12.072;2023-12-07T14:35:46;50.88;;;22.67;;
53287;SDS011;39172;45.550;12.072;2023-12-07T14:41:49;42.85;;;21.98;;
53287;SDS011;39172;45.550;12.072;2023-12-07T14:47:54;32.30;;;17.48;;
53287;SDS011;39172;45.550;12.072;2023-12-07T14:53:56;45.70;;;21.55;;
53287;SDS011;39172;45.550;12.072;2023-12-07T14:59:59;44.03;;;19.52;;
53287;SDS011;39172;45.550;12.072;2023-12-07T15:06:01;45.03;;;22.00;;
53287;SDS011;39172;45.550;12.072;2023-12-07T15:12:02;53.78;;;23.92;;
53287;SDS011;39172;45.550;12.072;2023-12-07T15:18:04;45.38;;;21.08;;
53287;SDS011;39172;45.550;12.072;2023-12-07T15:24:06;67.05;;;28.45;;
53287;SDS011;39172;45.550;12.072;2023-12-07T15:30:08;38.00;;;20.35;;
53287;SDS011;39172;45.550;12.072;2023-12-07T15:36:10;53.90;;;25.33;;
53287;SDS011;39172;45.550;12.072;2023-12-07T15:42:12;55.25;;;25.48;;
53287;SDS011;39172;45.550;12.072;2023-12-07T15:48:13;63.25;;;30.38;;
53287;SDS011;39172;45.550;12.072;2023-12-07T15:54:16;74.50;;;33.35;;
53287;SDS011;39172;45.550;12.072;2023-12-07T16:00:18;101.38;;;41.75;;
53287;SDS011;39172;45.550;12.072;2023-12-07T16:06:23;153.00;;;65.43;;
53287;SDS011;39172;45.550;12.072;2023-12-07T16:12:25;80.50;;;33.53;;
53287;SDS011;39172;45.550;12.072;2023-12-07T16:18:25;59.83;;;27.67;;
53287;SDS011;39172;45.550;12.072;2023-12-07T16:24:37;71.82;;;31.98;;
53287;SDS011;39172;45.550;12.072;2023-12-07T16:30:39;66.50;;;31.58;;
53287;SDS011;39172;45.550;12.072;2023-12-07T16:36:40;55.97;;;26.02;;
53287;SDS011;39172;45.550;12.072;2023-12-07T16:42:42;90.15;;;36.15;;
53287;SDS011;39172;45.550;12.072;2023-12-07T16:48:48;158.85;;;63.50;;
53287;SDS011;39172;45.550;12.072;2023-12-07T16:54:49;65.72;;;31.45;;
53287;SDS011;39172;45.550;12.072;2023-12-07T17:00:52;74.72;;;32.72;;
53287;SDS011;39172;45.550;12.072;2023-12-07T17:06:57;76.82;;;32.10;;
53287;SDS011;39172;45.550;12.072;2023-12-07T17:12:58;57.88;;;27.35;;
53287;SDS011;39172;45.550;12.072;2023-12-07T17:19:01;44.15;;;21.20;;
53287;SDS011;39172;45.550;12.072;2023-12-07T17:25:05;147.10;;;58.55;;
53287;SDS011;39172;45.550;12.072;2023-12-07T17:31:13;77.18;;;35.58;;
53287;SDS011;39172;45.550;12.072;2023-12-07T17:37:16;89.93;;;39.08;;
53287;SDS011;39172;45.550;12.072;2023-12-07T17:43:20;95.93;;;39.53;;
53287;SDS011;39172;45.550;12.072;2023-12-07T17:49:22;73.97;;;33.70;;
53287;SDS011;39172;45.550;12.072;2023-12-07T17:55:25;67.03;;;30.58;;
53287;SDS011;39172;45.550;12.072;2023-12-07T18:01:28;253.98;;;86.22;;
53287;SDS011;39172;45.550;12.072;2023-12-07T18:07:31;158.98;;;65.05;;
53287;SDS011;39172;45.550;12.072;2023-12-07T18:13:33;144.60;;;57.85;;
53287;SDS011;39172;45.550;12.072;2023-12-07T18:19:35;143.77;;;57.72;;
53287;SDS011;39172;45.550;12.072;2023-12-07T18:25:38;148.18;;;58.72;;
53287;SDS011;39172;45.550;12.072;2023-12-07T18:31:39;142.88;;;54.08;;
53287;SDS011;39172;45.550;12.072;2023-12-07T18:37:40;70.30;;;33.83;;
53287;SDS011;39172;45.550;12.072;2023-12-07T18:43:41;65.03;;;30.67;;
53287;SDS011;39172;45.550;12.072;2023-12-07T18:49:42;56.70;;;26.75;;
53287;SDS011;39172;45.550;12.072;2023-12-07T18:55:43;43.03;;;21.25;;
53287;SDS011;39172;45.550;12.072;2023-12-07T19:01:45;31.10;;;16.50;;
53287;SDS011;39172;45.550;12.072;2023-12-07T19:07:47;27.02;;;14.75;;
53287;SDS011;39172;45.550;12.072;2023-12-07T19:13:49;22.50;;;12.15;;
53287;SDS011;39172;45.550;12.072;2023-12-07T19:19:56;76.13;;;35.38;;
53287;SDS011;39172;45.550;12.072;2023-12-07T19:25:58;68.25;;;34.10;;
53287;SDS011;39172;45.550;12.072;2023-12-07T19:32:00;62.03;;;31.65;;
53287;SDS011;39172;45.550;12.072;2023-12-07T19:38:02;47.10;;;25.70;;
53287;SDS011;39172;45.550;12.072;2023-12-07T19:44:04;30.92;;;17.10;;
53287;SDS011;39172;45.550;12.072;2023-12-07T19:50:05;25.30;;;13.93;;
53287;SDS011;39172;45.550;12.072;2023-12-07T19:56:06;21.45;;;12.40;;
53287;SDS011;39172;45.550;12.072;2023-12-07T20:02:09;17.02;;;11.10;;
53287;SDS011;39172;45.550;12.072;2023-12-07T20:08:11;34.83;;;20.00;;
53287;SDS011;39172;45.550;12.072;2023-12-07T20:14:12;19.27;;;13.27;;
53287;SDS011;39172;45.550;12.072;2023-12-07T20:20:14;18.35;;;10.45;;
53287;SDS011;39172;45.550;12.072;2023-12-07T20:26:15;20.75;;;12.25;;
53287;SDS011;39172;45.550;12.072;2023-12-07T20:32:17;24.17;;;14.82;;
53287;SDS011;39172;45.550;12.072;2023-12-07T20:38:18;25.92;;;14.38;;
53287;SDS011;39172;45.550;12.072;2023-12-07T20:44:19;24.90;;;14.30;;
53287;SDS011;39172;45.550;12.072;2023-12-07T20:50:21;25.58;;;15.23;;
53287;SDS011;39172;45.550;12.072;2023-12-07T20:56:23;24.10;;;15.02;;
53287;SDS011;39172;45.550;12.072;2023-12-07T21:02:24;24.58;;;14.30;;
53287;SDS011;39172;45.550;12.072;2023-12-07T21:08:25;24.50;;;14.18;;
53287;SDS011;39172;45.550;12.072;2023-12-07T21:14:26;25.60;;;14.48;;
53287;SDS011;39172;45.550;12.072;2023-12-07T21:20:27;29.27;;;15.98;;
53287;SDS011;39172;45.550;12.072;2023-12-07T21:26:28;35.03;;;22.38;;
53287;SDS011;39172;45.550;12.072;2023-12-07T21:32:29;28.65;;;18.00;;
53287;SDS011;39172;45.550;12.072;2023-12-07T21:38:30;26.17;;;15.70;;
53287;SDS011;39172;45.550;12.072;2023-12-07T21:44:31;33.95;;;21.13;;
53287;SDS011;39172;45.550;12.072;2023-12-07T21:50:32;22.42;;;13.98;;
53287;SDS011;39172;45.550;12.072;2023-12-07T21:56:33;21.10;;;12.48;;
53287;SDS011;39172;45.550;12.072;2023-12-07T22:02:34;19.38;;;11.52;;
53287;SDS011;39172;45.550;12.072;2023-12-07T22:08:35;18.85;;;11.40;;
53287;SDS011;39172;45.550;12.072;2023-12-07T22:14:36;20.15;;;12.57;;
53287;SDS011;39172;45.550;12.072;2023-12-07T22:20:38;22.42;;;13.60;;
53287;SDS011;39172;45.550;12.072;2023-12-07T22:26:39;21.30;;;11.80;;
53287;SDS011;39172;45.550;12.072;2023-12-07T22:32:41;21.55;;;12.95;;
53287;SDS011;39172;45.550;12.072;2023-12-07T22:38:42;21.67;;;13.75;;
53287;SDS011;39172;45.550;12.072;2023-12-07T22:44:43;24.60;;;15.48;;
53287;SDS011;39172;45.550;12.072;2023-12-07T22:50:44;18.25;;;10.05;;
53287;SDS011;39172;45.550;12.072;2023-12-07T22:56:45;15.32;;;8.75;;
53287;SDS011;39172;45.550;12.072;2023-12-07T23:02:49;14.65;;;8.45;;
53287;SDS011;39172;45.550;12.072;2023-12-07T23:08:50;15.52;;;8.60;;
53287;SDS011;39172;45.550;12.072;2023-12-07T23:14:51;17.13;;;9.52;;
53287;SDS011;39172;45.550;12.072;2023-12-07T23:20:53;17.20;;;10.05;;
53287;SDS011;39172;45.550;12.072;2023-12-07T23:26:54;20.70;;;10.40;;
53287;SDS011;39172;45.550;12.072;2023-12-07T23:32:55;18.10;;;9.73;;
53287;SDS011;39172;45.550;12.072;2023-12-07T23:38:56;16.98;;;9.52;;
53287;SDS011;39172;45.550;12.072;2023-12-07T23:44:57;19.45;;;10.48;;
53287;SDS011;39172;45.550;12.072;2023-12-07T23:50:58;16.65;;;9.85;;
53287;SDS011;39172;45.550;12.072;2023-12-07T23:56:59;23.17;;;13.10;;
